sensor_id;sensor_type;location;lat;lon;timestamp;temperature;humidity
68924;DHT22;55961;52.156;20.942;2022-09-17T00:00:46;11.00;70.90
68924;DHT22;55961;52.156;20.942;2022-09-17T00:03:26;10.90;70.90
68924;DHT22;55961;52.156;20.942;2022-09-17T00:06:04;11.00;70.80
68924;DHT22;55961;52.156;20.942;2022-09-17T00:08:31;11.00;70.70
68924;DHT22;55961;52.156;20.942;2022-09-17T00:11:12;11.00;70.60
68924;DHT22;55961;52.156;20.942;2022-09-17T00:13:39;11.00;70.70
68924;DHT22;55961;52.156;20.942;2022-09-17T00:16:05;10.90;70.60
68924;DHT22;55961;52.156;20.942;2022-09-17T00:18:31;11.00;70.60
68924;DHT22;55961;52.156;20.942;2022-09-17T00:20:57;10.90;70.40
68924;DHT22;55961;52.156;20.942;2022-09-17T00:23:24;10.90;70.50
68924;DHT22;55961;52.156;20.942;2022-09-17T00:25:50;10.90;70.50
68924;DHT22;55961;52.156;20.942;2022-09-17T00:28:15;10.90;70.40
68924;DHT22;55961;52.156;20.942;2022-09-17T00:30:43;10.90;70.40
68924;DHT22;55961;52.156;20.942;2022-09-17T00:33:14;10.90;70.50
68924;DHT22;55961;52.156;20.942;2022-09-17T00:35:40;10.90;70.50
68924;DHT22;55961;52.156;20.942;2022-09-17T00:38:06;10.90;70.50
68924;DHT22;55961;52.156;20.942;2022-09-17T00:40:32;10.90;70.50
68924;DHT22;55961;52.156;20.942;2022-09-17T00:42:58;10.90;70.50
68924;DHT22;55961;52.156;20.942;2022-09-17T00:45:25;10.90;70.60
68924;DHT22;55961;52.156;20.942;2022-09-17T00:48:01;10.90;70.60
68924;DHT22;55961;52.156;20.942;2022-09-17T00:50:37;10.80;70.70
68924;DHT22;55961;52.156;20.942;2022-09-17T00:53:09;10.90;70.60
68924;DHT22;55961;52.156;20.942;2022-09-17T00:55:47;10.80;70.70
68924;DHT22;55961;52.156;20.942;2022-09-17T00:58:15;10.80;70.70
68924;DHT22;55961;52.156;20.942;2022-09-17T01:00:42;10.80;70.70
68924;DHT22;55961;52.156;20.942;2022-09-17T01:03:08;10.80;70.60
68924;DHT22;55961;52.156;20.942;2022-09-17T01:05:44;10.70;70.70
68924;DHT22;55961;52.156;20.942;2022-09-17T01:08:24;10.70;70.80
68924;DHT22;55961;52.156;20.942;2022-09-17T01:14:44;10.70;71.00
68924;DHT22;55961;52.156;20.942;2022-09-17T01:17:36;10.70;70.90
68924;DHT22;55961;52.156;20.942;2022-09-17T01:20:19;10.60;71.10
68924;DHT22;55961;52.156;20.942;2022-09-17T01:35:00;10.50;71.30
68924;DHT22;55961;52.156;20.942;2022-09-17T01:37:43;10.50;71.40
68924;DHT22;55961;52.156;20.942;2022-09-17T01:40:21;10.50;71.60
68924;DHT22;55961;52.156;20.942;2022-09-17T01:43:05;10.50;71.50
68924;DHT22;55961;52.156;20.942;2022-09-17T01:45:39;10.40;71.60
68924;DHT22;55961;52.156;20.942;2022-09-17T01:48:16;10.40;71.70
68924;DHT22;55961;52.156;20.942;2022-09-17T01:50:55;10.40;71.80
68924;DHT22;55961;52.156;20.942;2022-09-17T01:54:10;10.40;71.60
68924;DHT22;55961;52.156;20.942;2022-09-17T01:56:36;10.30;71.90
68924;DHT22;55961;52.156;20.942;2022-09-17T01:59:13;10.30;72.00
68924;DHT22;55961;52.156;20.942;2022-09-17T02:01:43;10.30;72.00
68924;DHT22;55961;52.156;20.942;2022-09-17T02:04:21;10.30;72.00
68924;DHT22;55961;52.156;20.942;2022-09-17T02:06:54;10.30;72.10
68924;DHT22;55961;52.156;20.942;2022-09-17T02:09:27;10.20;72.20
68924;DHT22;55961;52.156;20.942;2022-09-17T02:11:58;10.20;72.20
68924;DHT22;55961;52.156;20.942;2022-09-17T02:14:42;10.20;72.30
68924;DHT22;55961;52.156;20.942;2022-09-17T02:17:21;10.20;72.30
68924;DHT22;55961;52.156;20.942;2022-09-17T02:19:49;10.20;72.10
68924;DHT22;55961;52.156;20.942;2022-09-17T02:23:10;10.10;72.20
68924;DHT22;55961;52.156;20.942;2022-09-17T02:25:21;10.10;72.30
68924;DHT22;55961;52.156;20.942;2022-09-17T02:28:01;10.10;72.20
68924;DHT22;55961;52.156;20.942;2022-09-17T02:30:28;10.10;72.20
68924;DHT22;55961;52.156;20.942;2022-09-17T02:32:55;10.10;72.30
68924;DHT22;55961;52.156;20.942;2022-09-17T02:35:21;10.10;72.20
68924;DHT22;55961;52.156;20.942;2022-09-17T02:37:47;10.10;72.20
68924;DHT22;55961;52.156;20.942;2022-09-17T02:40:15;10.00;72.30
68924;DHT22;55961;52.156;20.942;2022-09-17T02:54:06;9.90;72.50
68924;DHT22;55961;52.156;20.942;2022-09-17T03:02:30;9.80;72.80
68924;DHT22;55961;52.156;20.942;2022-09-17T03:04:59;9.80;73.00
68924;DHT22;55961;52.156;20.942;2022-09-17T03:07:25;9.80;73.10
68924;DHT22;55961;52.156;20.942;2022-09-17T03:09:53;9.80;73.20
68924;DHT22;55961;52.156;20.942;2022-09-17T03:12:19;9.70;73.30
68924;DHT22;55961;52.156;20.942;2022-09-17T03:14:45;9.70;73.40
68924;DHT22;55961;52.156;20.942;2022-09-17T03:17:11;9.70;73.60
68924;DHT22;55961;52.156;20.942;2022-09-17T03:19:39;9.70;73.80
68924;DHT22;55961;52.156;20.942;2022-09-17T03:22:05;9.60;73.80
68924;DHT22;55961;52.156;20.942;2022-09-17T03:24:31;9.60;73.80
68924;DHT22;55961;52.156;20.942;2022-09-17T03:26:56;9.50;74.00
68924;DHT22;55961;52.156;20.942;2022-09-17T03:29:22;9.50;74.20
68924;DHT22;55961;52.156;20.942;2022-09-17T03:31:48;9.50;74.20
68924;DHT22;55961;52.156;20.942;2022-09-17T03:34:14;9.40;74.10
68924;DHT22;55961;52.156;20.942;2022-09-17T03:36:40;9.40;74.40
68924;DHT22;55961;52.156;20.942;2022-09-17T03:39:06;9.40;74.60
68924;DHT22;55961;52.156;20.942;2022-09-17T03:41:31;9.40;74.50
68924;DHT22;55961;52.156;20.942;2022-09-17T03:43:57;9.30;74.60
68924;DHT22;55961;52.156;20.942;2022-09-17T03:46:23;9.30;74.80
68924;DHT22;55961;52.156;20.942;2022-09-17T03:48:49;9.40;74.90
68924;DHT22;55961;52.156;20.942;2022-09-17T03:51:15;9.40;74.90
68924;DHT22;55961;52.156;20.942;2022-09-17T03:53:41;9.40;75.00
68924;DHT22;55961;52.156;20.942;2022-09-17T03:56:07;9.30;75.00
68924;DHT22;55961;52.156;20.942;2022-09-17T03:58:33;9.30;75.10
68924;DHT22;55961;52.156;20.942;2022-09-17T04:00:59;9.30;75.10
68924;DHT22;55961;52.156;20.942;2022-09-17T04:03:28;9.30;75.00
68924;DHT22;55961;52.156;20.942;2022-09-17T04:05:54;9.30;75.00
68924;DHT22;55961;52.156;20.942;2022-09-17T04:08:20;9.30;75.10
68924;DHT22;55961;52.156;20.942;2022-09-17T04:10:47;9.20;75.10
68924;DHT22;55961;52.156;20.942;2022-09-17T04:13:14;9.20;75.20
68924;DHT22;55961;52.156;20.942;2022-09-17T04:15:41;9.20;75.30
68924;DHT22;55961;52.156;20.942;2022-09-17T04:18:07;9.20;75.40
68924;DHT22;55961;52.156;20.942;2022-09-17T04:20:33;9.20;75.60
68924;DHT22;55961;52.156;20.942;2022-09-17T04:22:59;9.20;75.60
68924;DHT22;55961;52.156;20.942;2022-09-17T04:25:25;9.20;75.60
68924;DHT22;55961;52.156;20.942;2022-09-17T04:27:51;9.10;75.60
68924;DHT22;55961;52.156;20.942;2022-09-17T04:30:17;9.20;75.60
68924;DHT22;55961;52.156;20.942;2022-09-17T04:32:43;9.10;75.80
68924;DHT22;55961;52.156;20.942;2022-09-17T04:35:10;9.10;75.80
68924;DHT22;55961;52.156;20.942;2022-09-17T04:37:36;9.10;75.90
68924;DHT22;55961;52.156;20.942;2022-09-17T04:40:03;9.10;76.00
68924;DHT22;55961;52.156;20.942;2022-09-17T04:42:29;9.10;76.10
68924;DHT22;55961;52.156;20.942;2022-09-17T04:44:55;9.10;76.10
68924;DHT22;55961;52.156;20.942;2022-09-17T04:47:22;9.10;76.30
68924;DHT22;55961;52.156;20.942;2022-09-17T04:49:58;9.10;76.30
68924;DHT22;55961;52.156;20.942;2022-09-17T04:52:24;9.10;76.40
68924;DHT22;55961;52.156;20.942;2022-09-17T04:54:50;9.10;76.50
68924;DHT22;55961;52.156;20.942;2022-09-17T04:57:16;9.10;76.40
68924;DHT22;55961;52.156;20.942;2022-09-17T04:59:41;9.10;76.50
68924;DHT22;55961;52.156;20.942;2022-09-17T05:02:07;9.10;76.60
68924;DHT22;55961;52.156;20.942;2022-09-17T05:04:33;9.10;76.60
68924;DHT22;55961;52.156;20.942;2022-09-17T05:06:59;9.20;76.60
68924;DHT22;55961;52.156;20.942;2022-09-17T05:09:24;9.20;76.60
68924;DHT22;55961;52.156;20.942;2022-09-17T05:11:51;9.30;76.60
68924;DHT22;55961;52.156;20.942;2022-09-17T05:14:17;9.20;76.60
68924;DHT22;55961;52.156;20.942;2022-09-17T05:16:42;9.30;76.50
68924;DHT22;55961;52.156;20.942;2022-09-17T05:19:08;9.40;76.50
68924;DHT22;55961;52.156;20.942;2022-09-17T05:21:34;9.40;76.40
68924;DHT22;55961;52.156;20.942;2022-09-17T05:24:00;9.40;76.10
68924;DHT22;55961;52.156;20.942;2022-09-17T05:26:26;9.50;75.90
68924;DHT22;55961;52.156;20.942;2022-09-17T05:28:52;9.50;75.80
68924;DHT22;55961;52.156;20.942;2022-09-17T05:31:17;9.60;75.70
68924;DHT22;55961;52.156;20.942;2022-09-17T05:33:43;9.70;75.50
68924;DHT22;55961;52.156;20.942;2022-09-17T05:36:09;9.80;75.50
68924;DHT22;55961;52.156;20.942;2022-09-17T05:38:35;9.90;75.30
68924;DHT22;55961;52.156;20.942;2022-09-17T05:41:06;10.00;75.10
68924;DHT22;55961;52.156;20.942;2022-09-17T05:43:32;10.10;74.40
68924;DHT22;55961;52.156;20.942;2022-09-17T05:46:03;10.20;74.10
68924;DHT22;55961;52.156;20.942;2022-09-17T05:48:29;10.30;73.60
68924;DHT22;55961;52.156;20.942;2022-09-17T05:50:55;10.40;73.10
68924;DHT22;55961;52.156;20.942;2022-09-17T05:53:21;10.40;72.90
68924;DHT22;55961;52.156;20.942;2022-09-17T05:55:48;10.50;72.50
68924;DHT22;55961;52.156;20.942;2022-09-17T05:58:16;10.60;72.10
68924;DHT22;55961;52.156;20.942;2022-09-17T06:00:42;10.70;71.70
68924;DHT22;55961;52.156;20.942;2022-09-17T06:03:10;10.80;71.30
68924;DHT22;55961;52.156;20.942;2022-09-17T06:05:36;10.90;71.00
68924;DHT22;55961;52.156;20.942;2022-09-17T06:08:02;11.00;70.80
68924;DHT22;55961;52.156;20.942;2022-09-17T06:10:28;11.10;70.10
68924;DHT22;55961;52.156;20.942;2022-09-17T06:12:58;11.20;69.40
68924;DHT22;55961;52.156;20.942;2022-09-17T06:15:25;11.30;69.40
68924;DHT22;55961;52.156;20.942;2022-09-17T06:17:51;11.40;69.40
68924;DHT22;55961;52.156;20.942;2022-09-17T06:20:19;11.50;68.60
68924;DHT22;55961;52.156;20.942;2022-09-17T06:22:45;11.60;68.80
68924;DHT22;55961;52.156;20.942;2022-09-17T06:25:11;11.80;67.90
68924;DHT22;55961;52.156;20.942;2022-09-17T06:27:37;11.90;67.70
68924;DHT22;55961;52.156;20.942;2022-09-17T06:30:04;12.00;67.30
68924;DHT22;55961;52.156;20.942;2022-09-17T06:32:31;12.10;67.30
68924;DHT22;55961;52.156;20.942;2022-09-17T06:34:57;12.20;66.70
68924;DHT22;55961;52.156;20.942;2022-09-17T06:37:30;12.20;66.60
68924;DHT22;55961;52.156;20.942;2022-09-17T06:39:57;12.40;66.20
68924;DHT22;55961;52.156;20.942;2022-09-17T06:42:26;12.50;65.70
68924;DHT22;55961;52.156;20.942;2022-09-17T06:44:53;12.60;64.60
68924;DHT22;55961;52.156;20.942;2022-09-17T06:47:19;12.70;64.50
68924;DHT22;55961;52.156;20.942;2022-09-17T06:49:45;12.70;64.60
68924;DHT22;55961;52.156;20.942;2022-09-17T06:52:11;12.80;64.60
68924;DHT22;55961;52.156;20.942;2022-09-17T06:54:37;12.80;64.60
68924;DHT22;55961;52.156;20.942;2022-09-17T06:57:02;12.80;64.30
68924;DHT22;55961;52.156;20.942;2022-09-17T06:59:30;12.90;64.10
68924;DHT22;55961;52.156;20.942;2022-09-17T07:01:56;13.00;64.00
68924;DHT22;55961;52.156;20.942;2022-09-17T07:04:22;13.00;63.80
68924;DHT22;55961;52.156;20.942;2022-09-17T07:06:48;13.00;63.60
68924;DHT22;55961;52.156;20.942;2022-09-17T07:09:14;13.10;63.40
68924;DHT22;55961;52.156;20.942;2022-09-17T07:11:39;13.10;63.70
68924;DHT22;55961;52.156;20.942;2022-09-17T07:14:05;13.00;63.80
68924;DHT22;55961;52.156;20.942;2022-09-17T07:16:31;13.00;64.20
68924;DHT22;55961;52.156;20.942;2022-09-17T07:18:59;13.00;64.30
68924;DHT22;55961;52.156;20.942;2022-09-17T07:21:25;12.90;64.40
68924;DHT22;55961;52.156;20.942;2022-09-17T07:23:51;12.90;64.60
68924;DHT22;55961;52.156;20.942;2022-09-17T07:26:17;12.80;65.10
68924;DHT22;55961;52.156;20.942;2022-09-17T07:28:43;12.80;65.30
68924;DHT22;55961;52.156;20.942;2022-09-17T07:31:11;12.80;65.20
68924;DHT22;55961;52.156;20.942;2022-09-17T07:33:37;12.70;65.50
68924;DHT22;55961;52.156;20.942;2022-09-17T07:36:05;12.70;65.50
68924;DHT22;55961;52.156;20.942;2022-09-17T07:38:33;12.70;65.70
68924;DHT22;55961;52.156;20.942;2022-09-17T07:41:02;12.70;65.80
68924;DHT22;55961;52.156;20.942;2022-09-17T07:43:32;12.70;65.80
68924;DHT22;55961;52.156;20.942;2022-09-17T07:46:01;12.60;66.10
68924;DHT22;55961;52.156;20.942;2022-09-17T07:48:28;12.60;65.90
68924;DHT22;55961;52.156;20.942;2022-09-17T07:50:55;12.60;66.00
68924;DHT22;55961;52.156;20.942;2022-09-17T07:53:21;12.60;66.40
68924;DHT22;55961;52.156;20.942;2022-09-17T07:55:53;12.50;66.60
68924;DHT22;55961;52.156;20.942;2022-09-17T07:58:21;12.50;66.70
68924;DHT22;55961;52.156;20.942;2022-09-17T08:00:48;12.50;66.60
68924;DHT22;55961;52.156;20.942;2022-09-17T08:03:14;12.50;66.70
68924;DHT22;55961;52.156;20.942;2022-09-17T08:05:40;12.50;66.90
68924;DHT22;55961;52.156;20.942;2022-09-17T08:08:06;12.50;67.00
68924;DHT22;55961;52.156;20.942;2022-09-17T08:10:32;12.50;67.20
68924;DHT22;55961;52.156;20.942;2022-09-17T08:12:58;12.60;67.60
68924;DHT22;55961;52.156;20.942;2022-09-17T08:15:24;12.60;67.60
68924;DHT22;55961;52.156;20.942;2022-09-17T08:17:50;12.60;67.80
68924;DHT22;55961;52.156;20.942;2022-09-17T08:20:16;12.60;68.00
68924;DHT22;55961;52.156;20.942;2022-09-17T08:22:43;12.70;68.80
68924;DHT22;55961;52.156;20.942;2022-09-17T08:25:09;12.70;68.60
68924;DHT22;55961;52.156;20.942;2022-09-17T08:27:35;12.70;68.70
68924;DHT22;55961;52.156;20.942;2022-09-17T08:30:05;12.60;68.60
68924;DHT22;55961;52.156;20.942;2022-09-17T08:32:31;12.60;68.80
68924;DHT22;55961;52.156;20.942;2022-09-17T08:35:02;12.60;69.00
68924;DHT22;55961;52.156;20.942;2022-09-17T08:37:28;12.60;68.80
68924;DHT22;55961;52.156;20.942;2022-09-17T08:39:55;12.60;68.90
68924;DHT22;55961;52.156;20.942;2022-09-17T08:42:45;12.50;68.80
68924;DHT22;55961;52.156;20.942;2022-09-17T08:45:14;12.60;68.40
68924;DHT22;55961;52.156;20.942;2022-09-17T08:47:42;12.60;68.50
68924;DHT22;55961;52.156;20.942;2022-09-17T08:50:23;12.60;67.90
68924;DHT22;55961;52.156;20.942;2022-09-17T08:55:55;12.80;67.00
68924;DHT22;55961;52.156;20.942;2022-09-17T09:01:22;12.90;66.10
68924;DHT22;55961;52.156;20.942;2022-09-17T09:06:26;13.00;66.20
68924;DHT22;55961;52.156;20.942;2022-09-17T09:09:00;13.00;66.70
68924;DHT22;55961;52.156;20.942;2022-09-17T09:11:30;13.00;66.40
68924;DHT22;55961;52.156;20.942;2022-09-17T09:14:06;13.10;66.70
68924;DHT22;55961;52.156;20.942;2022-09-17T09:16:39;13.10;67.40
68924;DHT22;55961;52.156;20.942;2022-09-17T09:24:40;13.00;68.50
68924;DHT22;55961;52.156;20.942;2022-09-17T09:27:18;13.00;68.40
68924;DHT22;55961;52.156;20.942;2022-09-17T09:30:05;13.00;68.30
68924;DHT22;55961;52.156;20.942;2022-09-17T09:40:47;13.10;67.60
68924;DHT22;55961;52.156;20.942;2022-09-17T09:46:15;13.40;67.00
68924;DHT22;55961;52.156;20.942;2022-09-17T09:49:10;13.50;66.20
68924;DHT22;55961;52.156;20.942;2022-09-17T09:57:48;14.20;62.10
68924;DHT22;55961;52.156;20.942;2022-09-17T10:00:37;14.40;61.20
68924;DHT22;55961;52.156;20.942;2022-09-17T10:03:17;14.40;61.00
68924;DHT22;55961;52.156;20.942;2022-09-17T10:05:54;14.50;61.10
68924;DHT22;55961;52.156;20.942;2022-09-17T10:08:21;14.40;61.60
68924;DHT22;55961;52.156;20.942;2022-09-17T10:10:59;14.50;62.10
68924;DHT22;55961;52.156;20.942;2022-09-17T10:13:29;14.50;61.60
68924;DHT22;55961;52.156;20.942;2022-09-17T10:15:55;14.50;61.40
68924;DHT22;55961;52.156;20.942;2022-09-17T10:18:23;14.60;61.20
68924;DHT22;55961;52.156;20.942;2022-09-17T10:20:57;14.60;61.70
68924;DHT22;55961;52.156;20.942;2022-09-17T10:23:28;14.70;61.50
68924;DHT22;55961;52.156;20.942;2022-09-17T10:25:55;14.70;60.90
68924;DHT22;55961;52.156;20.942;2022-09-17T10:28:29;14.70;60.80
68924;DHT22;55961;52.156;20.942;2022-09-17T10:31:03;14.70;61.20
68924;DHT22;55961;52.156;20.942;2022-09-17T10:33:32;14.70;61.20
68924;DHT22;55961;52.156;20.942;2022-09-17T10:36:03;14.60;61.30
68924;DHT22;55961;52.156;20.942;2022-09-17T10:38:37;14.60;61.80
68924;DHT22;55961;52.156;20.942;2022-09-17T10:43:40;14.40;62.70
68924;DHT22;55961;52.156;20.942;2022-09-17T10:46:33;14.40;63.10
68924;DHT22;55961;52.156;20.942;2022-09-17T11:00:23;14.40;63.40
68924;DHT22;55961;52.156;20.942;2022-09-17T11:07:59;14.50;65.70
68924;DHT22;55961;52.156;20.942;2022-09-17T11:11:11;14.60;65.60
68924;DHT22;55961;52.156;20.942;2022-09-17T11:19:05;14.80;63.70
68924;DHT22;55961;52.156;20.942;2022-09-17T11:21:40;14.90;63.90
68924;DHT22;55961;52.156;20.942;2022-09-17T11:24:21;14.90;64.20
68924;DHT22;55961;52.156;20.942;2022-09-17T11:30:13;14.80;62.90
68924;DHT22;55961;52.156;20.942;2022-09-17T11:35:28;14.70;64.40
68924;DHT22;55961;52.156;20.942;2022-09-17T11:41:42;14.70;64.50
68924;DHT22;55961;52.156;20.942;2022-09-17T11:44:28;14.70;64.70
68924;DHT22;55961;52.156;20.942;2022-09-17T11:52:21;14.70;63.90
68924;DHT22;55961;52.156;20.942;2022-09-17T11:54:54;14.80;63.50
68924;DHT22;55961;52.156;20.942;2022-09-17T11:57:32;14.80;61.90
68924;DHT22;55961;52.156;20.942;2022-09-17T12:00:12;14.90;62.30
68924;DHT22;55961;52.156;20.942;2022-09-17T12:02:46;14.90;62.00
68924;DHT22;55961;52.156;20.942;2022-09-17T12:08:14;15.10;62.40
68924;DHT22;55961;52.156;20.942;2022-09-17T12:15:55;15.40;60.80
68924;DHT22;55961;52.156;20.942;2022-09-17T12:21:09;15.50;59.40
68924;DHT22;55961;52.156;20.942;2022-09-17T12:24:21;15.50;59.30
68924;DHT22;55961;52.156;20.942;2022-09-17T12:55:04;15.30;60.90
68924;DHT22;55961;52.156;20.942;2022-09-17T13:00:08;15.30;60.90
68924;DHT22;55961;52.156;20.942;2022-09-17T13:02:47;15.30;61.30
68924;DHT22;55961;52.156;20.942;2022-09-17T13:19:01;15.20;61.90
68924;DHT22;55961;52.156;20.942;2022-09-17T13:21:40;15.20;62.50
68924;DHT22;55961;52.156;20.942;2022-09-17T13:24:22;15.20;62.30
68924;DHT22;55961;52.156;20.942;2022-09-17T13:26:54;15.20;62.50
68924;DHT22;55961;52.156;20.942;2022-09-17T13:34:53;15.20;62.40
68924;DHT22;55961;52.156;20.942;2022-09-17T13:37:19;15.20;62.30
68924;DHT22;55961;52.156;20.942;2022-09-17T13:39:49;15.20;62.30
68924;DHT22;55961;52.156;20.942;2022-09-17T13:42:24;15.20;62.30
68924;DHT22;55961;52.156;20.942;2022-09-17T13:45:09;15.20;61.80
68924;DHT22;55961;52.156;20.942;2022-09-17T13:47:39;15.10;61.70
68924;DHT22;55961;52.156;20.942;2022-09-17T13:50:28;15.10;62.10
68924;DHT22;55961;52.156;20.942;2022-09-17T13:53:06;15.10;62.20
68924;DHT22;55961;52.156;20.942;2022-09-17T13:55:54;15.10;62.60
68924;DHT22;55961;52.156;20.942;2022-09-17T13:58:28;15.00;62.70
68924;DHT22;55961;52.156;20.942;2022-09-17T14:16:31;14.90;63.40
68924;DHT22;55961;52.156;20.942;2022-09-17T14:27:27;14.90;63.30
68924;DHT22;55961;52.156;20.942;2022-09-17T14:33:21;14.90;63.30
68924;DHT22;55961;52.156;20.942;2022-09-17T14:35:42;14.90;63.50
68924;DHT22;55961;52.156;20.942;2022-09-17T14:38:32;14.90;63.30
68924;DHT22;55961;52.156;20.942;2022-09-17T14:46:35;15.00;63.60
68924;DHT22;55961;52.156;20.942;2022-09-17T14:49:17;15.00;63.30
68924;DHT22;55961;52.156;20.942;2022-09-17T14:51:44;15.10;63.00
68924;DHT22;55961;52.156;20.942;2022-09-17T14:57:20;15.10;63.10
68924;DHT22;55961;52.156;20.942;2022-09-17T14:59:52;15.10;63.00
68924;DHT22;55961;52.156;20.942;2022-09-17T15:02:28;15.10;63.10
68924;DHT22;55961;52.156;20.942;2022-09-17T15:04:55;15.10;62.70
68924;DHT22;55961;52.156;20.942;2022-09-17T15:07:22;15.10;62.40
68924;DHT22;55961;52.156;20.942;2022-09-17T15:09:47;15.10;62.90
68924;DHT22;55961;52.156;20.942;2022-09-17T15:12:17;15.10;63.30
68924;DHT22;55961;52.156;20.942;2022-09-17T15:14:45;15.00;63.40
68924;DHT22;55961;52.156;20.942;2022-09-17T15:17:14;15.00;63.30
68924;DHT22;55961;52.156;20.942;2022-09-17T15:19:50;15.10;63.50
68924;DHT22;55961;52.156;20.942;2022-09-17T15:25:04;15.00;63.80
68924;DHT22;55961;52.156;20.942;2022-09-17T15:27:43;15.00;64.20
68924;DHT22;55961;52.156;20.942;2022-09-17T15:30:17;15.00;64.30
68924;DHT22;55961;52.156;20.942;2022-09-17T15:38:18;15.00;64.40
68924;DHT22;55961;52.156;20.942;2022-09-17T15:40:45;15.00;64.10
68924;DHT22;55961;52.156;20.942;2022-09-17T15:43:31;14.90;64.20
68924;DHT22;55961;52.156;20.942;2022-09-17T15:46:21;14.90;63.80
68924;DHT22;55961;52.156;20.942;2022-09-17T15:48:48;14.80;63.90
68924;DHT22;55961;52.156;20.942;2022-09-17T15:51:25;14.80;64.00
68924;DHT22;55961;52.156;20.942;2022-09-17T15:53:57;14.80;64.00
68924;DHT22;55961;52.156;20.942;2022-09-17T15:56:27;14.70;64.50
68924;DHT22;55961;52.156;20.942;2022-09-17T16:06:50;14.60;65.00
68924;DHT22;55961;52.156;20.942;2022-09-17T16:12:02;14.50;65.40
68924;DHT22;55961;52.156;20.942;2022-09-17T16:14:28;14.50;65.50
68924;DHT22;55961;52.156;20.942;2022-09-17T16:16:54;14.40;65.60
68924;DHT22;55961;52.156;20.942;2022-09-17T16:19:21;14.40;65.90
68924;DHT22;55961;52.156;20.942;2022-09-17T16:21:47;14.40;65.90
68924;DHT22;55961;52.156;20.942;2022-09-17T16:24:13;14.30;66.10
68924;DHT22;55961;52.156;20.942;2022-09-17T16:26:39;14.30;66.30
68924;DHT22;55961;52.156;20.942;2022-09-17T16:29:11;14.20;66.30
68924;DHT22;55961;52.156;20.942;2022-09-17T16:31:39;14.20;66.50
68924;DHT22;55961;52.156;20.942;2022-09-17T16:34:05;14.20;66.70
68924;DHT22;55961;52.156;20.942;2022-09-17T16:36:31;14.10;66.80
68924;DHT22;55961;52.156;20.942;2022-09-17T16:38:57;14.10;67.00
68924;DHT22;55961;52.156;20.942;2022-09-17T16:41:23;14.00;67.20
68924;DHT22;55961;52.156;20.942;2022-09-17T16:43:49;14.00;67.20
68924;DHT22;55961;52.156;20.942;2022-09-17T16:46:15;14.00;67.30
68924;DHT22;55961;52.156;20.942;2022-09-17T16:48:41;14.00;67.30
68924;DHT22;55961;52.156;20.942;2022-09-17T16:51:10;14.00;67.40
68924;DHT22;55961;52.156;20.942;2022-09-17T16:53:36;14.00;68.00
68924;DHT22;55961;52.156;20.942;2022-09-17T16:56:09;13.90;68.00
68924;DHT22;55961;52.156;20.942;2022-09-17T16:58:35;13.90;67.90
68924;DHT22;55961;52.156;20.942;2022-09-17T17:01:08;13.90;67.70
68924;DHT22;55961;52.156;20.942;2022-09-17T17:03:34;13.90;67.80
68924;DHT22;55961;52.156;20.942;2022-09-17T17:06:00;13.90;68.00
68924;DHT22;55961;52.156;20.942;2022-09-17T17:08:26;13.80;68.10
68924;DHT22;55961;52.156;20.942;2022-09-17T17:10:52;13.80;68.20
68924;DHT22;55961;52.156;20.942;2022-09-17T17:13:18;13.80;68.30
68924;DHT22;55961;52.156;20.942;2022-09-17T17:15:44;13.80;68.40
68924;DHT22;55961;52.156;20.942;2022-09-17T17:18:10;13.70;68.60
68924;DHT22;55961;52.156;20.942;2022-09-17T17:20:35;13.70;68.60
68924;DHT22;55961;52.156;20.942;2022-09-17T17:23:01;13.60;68.70
68924;DHT22;55961;52.156;20.942;2022-09-17T17:25:29;13.60;68.80
68924;DHT22;55961;52.156;20.942;2022-09-17T17:27:56;13.50;68.90
68924;DHT22;55961;52.156;20.942;2022-09-17T17:30:22;13.50;68.90
68924;DHT22;55961;52.156;20.942;2022-09-17T17:32:49;13.40;69.10
68924;DHT22;55961;52.156;20.942;2022-09-17T17:35:15;13.40;69.20
68924;DHT22;55961;52.156;20.942;2022-09-17T17:37:41;13.30;69.20
68924;DHT22;55961;52.156;20.942;2022-09-17T17:40:07;13.30;69.30
68924;DHT22;55961;52.156;20.942;2022-09-17T17:42:35;13.20;69.40
68924;DHT22;55961;52.156;20.942;2022-09-17T17:45:05;13.20;69.50
68924;DHT22;55961;52.156;20.942;2022-09-17T17:47:31;13.10;69.60
68924;DHT22;55961;52.156;20.942;2022-09-17T17:49:57;13.10;69.70
68924;DHT22;55961;52.156;20.942;2022-09-17T17:52:23;13.00;69.70
68924;DHT22;55961;52.156;20.942;2022-09-17T17:54:49;13.00;69.70
68924;DHT22;55961;52.156;20.942;2022-09-17T17:57:18;12.90;69.80
68924;DHT22;55961;52.156;20.942;2022-09-17T17:59:44;12.90;70.00
68924;DHT22;55961;52.156;20.942;2022-09-17T18:02:10;12.80;70.10
68924;DHT22;55961;52.156;20.942;2022-09-17T18:04:36;12.80;70.30
68924;DHT22;55961;52.156;20.942;2022-09-17T18:07:02;12.70;70.40
68924;DHT22;55961;52.156;20.942;2022-09-17T18:09:28;12.60;70.40
68924;DHT22;55961;52.156;20.942;2022-09-17T18:12:03;12.60;70.60
68924;DHT22;55961;52.156;20.942;2022-09-17T18:14:29;12.60;70.60
68924;DHT22;55961;52.156;20.942;2022-09-17T18:16:55;12.50;70.80
68924;DHT22;55961;52.156;20.942;2022-09-17T18:19:21;12.40;70.90
68924;DHT22;55961;52.156;20.942;2022-09-17T18:21:46;12.40;71.40
68924;DHT22;55961;52.156;20.942;2022-09-17T18:24:12;12.30;71.60
68924;DHT22;55961;52.156;20.942;2022-09-17T18:26:38;12.20;72.30
68924;DHT22;55961;52.156;20.942;2022-09-17T18:29:04;12.20;72.50
68924;DHT22;55961;52.156;20.942;2022-09-17T18:31:31;12.20;72.60
68924;DHT22;55961;52.156;20.942;2022-09-17T18:34:01;12.10;72.80
68924;DHT22;55961;52.156;20.942;2022-09-17T18:36:31;12.10;73.00
68924;DHT22;55961;52.156;20.942;2022-09-17T18:39:01;12.00;72.90
68924;DHT22;55961;52.156;20.942;2022-09-17T18:41:30;12.00;73.20
68924;DHT22;55961;52.156;20.942;2022-09-17T18:43:57;12.00;73.20
68924;DHT22;55961;52.156;20.942;2022-09-17T18:46:25;11.90;73.50
68924;DHT22;55961;52.156;20.942;2022-09-17T18:48:52;11.90;73.80
68924;DHT22;55961;52.156;20.942;2022-09-17T18:51:19;11.80;74.10
68924;DHT22;55961;52.156;20.942;2022-09-17T18:53:45;11.80;74.20
68924;DHT22;55961;52.156;20.942;2022-09-17T18:58:36;11.70;74.50
68924;DHT22;55961;52.156;20.942;2022-09-17T19:01:06;11.70;74.50
68924;DHT22;55961;52.156;20.942;2022-09-17T19:03:33;11.70;74.90
68924;DHT22;55961;52.156;20.942;2022-09-17T19:06:00;11.70;74.90
68924;DHT22;55961;52.156;20.942;2022-09-17T19:08:26;11.70;75.00
68924;DHT22;55961;52.156;20.942;2022-09-17T19:10:52;11.70;75.60
68924;DHT22;55961;52.156;20.942;2022-09-17T19:13:18;11.70;75.80
68924;DHT22;55961;52.156;20.942;2022-09-17T19:15:44;11.70;75.80